createdAt,value
2019-06-10T00:01:04.592Z,18.02
2019-06-10T00:03:32.046Z,18.31
2019-06-10T00:06:01.858Z,18.01
2019-06-10T00:08:30.845Z,17.91
2019-06-10T00:11:01.762Z,17.63
2019-06-10T00:13:31.248Z,17.65
2019-06-10T00:16:01.282Z,17.32
2019-06-10T00:18:38.334Z,16.91
2019-06-10T00:20:59.823Z,16.94
2019-06-10T00:23:28.520Z,17.66
2019-06-10T00:25:57.916Z,17.64
2019-06-10T00:28:26.125Z,17.50
2019-06-10T00:30:54.291Z,17.60
2019-06-10T00:33:22.417Z,17.88
2019-06-10T00:35:51.504Z,17.36
2019-06-10T00:38:21.442Z,16.88
2019-06-10T00:40:51.140Z,16.93
2019-06-10T00:43:18.608Z,17.10
2019-06-10T00:45:46.734Z,17.56
2019-06-10T00:48:25.009Z,17.41
2019-06-10T00:50:45.151Z,17.49
2019-06-10T00:53:14.550Z,17.56
2019-06-10T00:55:42.891Z,17.87
2019-06-10T00:58:13.951Z,17.81
2019-06-10T01:00:41.229Z,17.87
2019-06-10T01:03:13.450Z,17.96
2019-06-10T01:05:38.579Z,18.02
2019-06-10T01:08:06.967Z,17.65
2019-06-10T01:10:35.126Z,17.20
2019-06-10T01:13:03.489Z,17.04
2019-06-10T01:15:31.629Z,16.65
2019-06-10T01:18:01.369Z,16.62
2019-06-10T01:20:29.685Z,16.43
2019-06-10T01:22:57.806Z,16.71
2019-06-10T01:25:25.958Z,16.50
2019-06-10T01:27:54.139Z,16.56
2019-06-10T01:30:26.415Z,17.04
2019-06-10T01:32:52.086Z,17.37
2019-06-10T01:35:21.082Z,17.56
2019-06-10T01:37:51.845Z,17.62
2019-06-10T01:40:20.879Z,17.61
2019-06-10T01:42:50.644Z,17.57
2019-06-10T01:45:21.100Z,16.93
2019-06-10T01:47:50.975Z,16.42
2019-06-10T01:50:19.652Z,16.49
2019-06-10T01:52:48.502Z,16.98
2019-06-10T01:55:18.156Z,17.18
2019-06-10T01:57:46.495Z,17.24
2019-06-10T02:00:19.761Z,17.32
2019-06-10T02:02:45.301Z,17.11
2019-06-10T02:05:16.260Z,17.17
2019-06-10T02:07:42.619Z,17.17
2019-06-10T02:10:13.743Z,17.06
2019-06-10T02:12:41.562Z,17.06
2019-06-10T02:15:12.116Z,16.41
2019-06-10T02:17:38.907Z,16.02
2019-06-10T02:20:07.108Z,16.37
2019-06-10T02:22:35.225Z,16.49
2019-06-10T02:25:03.442Z,16.40
2019-06-10T02:27:31.601Z,16.52
2019-06-10T02:30:03.808Z,16.70
2019-06-10T02:32:36.889Z,16.72
2019-06-10T02:35:13.111Z,16.78
2019-06-10T02:37:32.310Z,16.86
2019-06-10T02:39:59.088Z,16.67
2019-06-10T02:42:35.576Z,16.49
2019-06-10T02:45:03.847Z,16.21
2019-06-10T02:47:37.248Z,16.66
2019-06-10T02:50:07.789Z,16.73
2019-06-10T02:52:37.229Z,16.74
2019-06-10T02:55:04.211Z,16.82
2019-06-10T02:57:39.443Z,16.86
2019-06-10T03:00:06.461Z,16.80
2019-06-10T03:02:35.889Z,16.75
2019-06-10T03:05:04.235Z,16.79
2019-06-10T03:07:32.629Z,16.76
2019-06-10T03:10:04.408Z,16.69
2019-06-10T03:12:32.948Z,16.59
2019-06-10T03:15:02.092Z,16.46
2019-06-10T03:17:32.275Z,16.57
2019-06-10T03:20:02.333Z,16.65
2019-06-10T03:22:32.627Z,16.65
2019-06-10T03:24:59.983Z,16.71
2019-06-10T03:27:28.281Z,16.69
2019-06-10T03:29:56.513Z,16.64
2019-06-10T03:32:32.301Z,16.43
2019-06-10T03:34:55.138Z,16.45
2019-06-10T03:37:25.992Z,16.53
2019-06-10T03:39:53.359Z,16.61
2019-06-10T03:42:23.684Z,16.40
2019-06-10T03:44:52.530Z,16.62
2019-06-10T03:47:21.828Z,16.60
2019-06-10T03:49:53.506Z,16.59
2019-06-10T03:52:23.510Z,16.39
2019-06-10T03:54:52.503Z,15.70
2019-06-10T03:57:23.519Z,15.19
2019-06-10T03:59:52.653Z,15.08
2019-06-10T04:02:23.260Z,14.89
2019-06-10T04:04:52.228Z,14.85
2019-06-10T04:07:20.884Z,15.41
2019-06-10T04:09:49.700Z,15.81
2019-06-10T04:12:17.797Z,15.86
2019-06-10T04:14:45.915Z,16.08
2019-06-10T04:17:14.048Z,16.36
2019-06-10T04:19:42.212Z,16.35
2019-06-10T04:22:10.380Z,16.37
2019-06-10T04:24:38.514Z,16.26
2019-06-10T04:27:06.665Z,16.17
2019-06-10T04:29:34.845Z,16.21
2019-06-10T04:32:03.253Z,16.51
2019-06-10T04:34:33.345Z,16.36
2019-06-10T04:37:03.119Z,16.64
2019-06-10T04:39:33.718Z,16.62
2019-06-10T04:42:02.406Z,16.50
2019-06-10T04:44:32.834Z,16.69
2019-06-10T04:47:02.698Z,16.38
2019-06-10T04:49:32.553Z,16.25
2019-06-10T04:52:02.836Z,16.24
2019-06-10T04:54:30.256Z,16.35
2019-06-10T04:56:58.440Z,16.39
2019-06-10T04:59:28.741Z,16.53
2019-06-10T05:01:55.768Z,16.22
2019-06-10T05:04:25.565Z,16.40
2019-06-10T05:06:53.841Z,16.20
2019-06-10T05:09:24.491Z,16.06
2019-06-10T05:11:52.316Z,16.14
2019-06-10T05:14:23.379Z,16.22
2019-06-10T05:16:50.592Z,16.38
2019-06-10T05:19:19.827Z,16.37
2019-06-10T05:21:48.076Z,16.34
2019-06-10T05:24:16.352Z,16.41
2019-06-10T05:26:44.526Z,16.39
2019-06-10T05:29:12.708Z,16.51
2019-06-10T05:31:43.505Z,16.56
2019-06-10T05:34:12.841Z,16.75
2019-06-10T05:36:43.550Z,17.20
2019-06-10T05:39:12.144Z,17.34
2019-06-10T05:41:43.033Z,17.39
2019-06-10T05:44:13.194Z,17.28
2019-06-10T05:46:43.284Z,17.52
2019-06-10T05:49:12.364Z,17.51
2019-06-10T05:51:42.366Z,17.52
2019-06-10T05:54:12.568Z,17.52
2019-06-10T05:56:39.969Z,17.50
2019-06-10T05:59:08.138Z,17.27
2019-06-10T06:01:38.328Z,17.52
2019-06-10T06:04:06.144Z,17.47
2019-06-10T06:06:35.467Z,17.52
2019-06-10T06:09:04.318Z,17.65
2019-06-10T06:11:34.093Z,17.47
2019-06-10T06:14:02.796Z,17.37
2019-06-10T06:16:33.128Z,17.70
2019-06-10T06:19:03.304Z,17.68
2019-06-10T06:21:39.597Z,17.80
2019-06-10T06:24:04.027Z,17.79
2019-06-10T06:26:36.290Z,17.92
2019-06-10T06:29:02.222Z,18.47
2019-06-10T06:31:32.873Z,18.30
2019-06-10T06:33:59.517Z,17.68
2019-06-10T06:36:28.655Z,17.93
2019-06-10T06:38:57.459Z,18.46
2019-06-10T06:41:25.602Z,18.62
2019-06-10T06:43:53.770Z,18.24
2019-06-10T06:46:23.327Z,18.17
2019-06-10T06:48:53.259Z,18.49
2019-06-10T06:51:36.032Z,18.57
2019-06-10T06:53:55.775Z,19.33
2019-06-10T06:56:23.059Z,19.32
2019-06-10T06:58:52.405Z,19.70
2019-06-10T07:01:25.546Z,19.86
2019-06-10T07:03:49.788Z,20.35
2019-06-10T07:06:17.899Z,21.00
2019-06-10T07:09:00.299Z,21.07
2019-06-10T07:11:18.677Z,20.60
2019-06-10T07:13:46.136Z,20.62
2019-06-10T07:16:14.318Z,20.28
2019-06-10T07:18:49.537Z,20.62
2019-06-10T07:21:13.242Z,21.51
2019-06-10T07:23:46.503Z,21.96
2019-06-10T07:26:12.717Z,21.64
2019-06-10T07:28:46.621Z,22.20
2019-06-10T07:31:20.764Z,22.69
2019-06-10T07:33:43.060Z,23.03
2019-06-10T07:36:13.168Z,23.10
2019-06-10T07:38:43.694Z,22.86
2019-06-10T07:41:12.593Z,23.26
2019-06-10T07:43:42.471Z,23.66
2019-06-10T07:46:09.407Z,22.72
2019-06-10T07:48:39.532Z,23.49
2019-06-10T07:51:07.557Z,23.50
2019-06-10T07:53:36.942Z,23.78
2019-06-10T07:56:05.887Z,24.65
2019-06-10T07:58:35.510Z,23.47
2019-06-10T08:01:03.951Z,23.87
2019-06-10T08:03:33.390Z,23.91
2019-06-10T08:06:03.285Z,24.74
2019-06-10T08:08:32.874Z,24.31
2019-06-10T08:11:03.510Z,24.55
2019-06-10T08:13:32.269Z,24.63
2019-06-10T08:16:02.864Z,25.42
2019-06-10T08:18:38.101Z,25.32
2019-06-10T08:21:02.912Z,25.91
2019-06-10T08:23:32.674Z,27.14
2019-06-10T08:26:03.160Z,26.75
2019-06-10T08:28:32.969Z,25.35
2019-06-10T08:31:00.043Z,25.49
2019-06-10T08:33:28.222Z,25.69
2019-06-10T08:36:00.434Z,24.65
2019-06-10T08:38:26.332Z,23.91
2019-06-10T08:40:54.582Z,24.02
2019-06-10T08:43:22.851Z,25.66
2019-06-10T08:45:52.913Z,26.75
2019-06-10T08:48:22.730Z,26.51
2019-06-10T08:50:53.050Z,26.35
2019-06-10T08:53:22.793Z,26.40
2019-06-10T08:55:53.419Z,27.04
2019-06-10T08:58:23.075Z,26.92
2019-06-10T09:00:53.278Z,27.53
2019-06-10T09:03:20.230Z,27.65
2019-06-10T09:05:50.899Z,26.58
2019-06-10T09:08:18.407Z,26.14
2019-06-10T09:10:49.897Z,26.40
2019-06-10T09:13:16.450Z,26.41
2019-06-10T09:15:50.835Z,27.29
2019-06-10T09:18:19.656Z,25.94
2019-06-10T09:20:49.038Z,26.46
2019-06-10T09:23:21.903Z,27.22
2019-06-10T09:25:47.661Z,27.93
2019-06-10T09:28:14.366Z,27.31
2019-06-10T09:30:47.562Z,27.44
2019-06-10T09:33:13.102Z,27.72
2019-06-10T09:35:45.486Z,27.77
2019-06-10T09:38:14.170Z,27.47
2019-06-10T09:40:59.000Z,26.59
2019-06-10T09:43:22.541Z,27.19
2019-06-10T09:45:56.289Z,28.58
2019-06-10T09:48:23.192Z,28.25
2019-06-10T09:50:57.873Z,27.10
2019-06-10T09:53:32.768Z,28.01
2019-06-10T09:55:55.622Z,29.41
2019-06-10T09:58:24.145Z,28.81
2019-06-10T10:00:57.650Z,28.15
2019-06-10T10:03:24.677Z,26.55
2019-06-10T10:06:07.250Z,25.51
2019-06-10T10:08:23.263Z,28.55
2019-06-10T10:10:58.465Z,27.98
2019-06-10T10:13:22.541Z,29.95
2019-06-10T10:15:53.868Z,29.83
2019-06-10T10:18:20.566Z,28.27
2019-06-10T10:20:51.255Z,29.27
2019-06-10T10:23:18.579Z,30.57
2019-06-10T10:25:48.230Z,30.34
2019-06-10T10:28:16.726Z,31.38
2019-06-10T10:30:47.002Z,30.52
2019-06-10T10:33:14.746Z,30.04
2019-06-10T10:35:45.763Z,28.65
2019-06-10T10:38:14.417Z,30.14
2019-06-10T10:40:44.140Z,31.09
2019-06-10T10:43:25.163Z,30.88
2019-06-10T10:45:45.628Z,30.44
2019-06-10T10:48:14.074Z,29.13
2019-06-10T10:50:43.843Z,30.52
2019-06-10T10:53:12.882Z,28.96
2019-06-10T10:55:42.502Z,31.30
2019-06-10T10:58:12.905Z,31.63
2019-06-10T11:00:47.441Z,30.43
2019-06-10T11:03:15.451Z,31.05
2019-06-10T11:05:46.243Z,31.14
2019-06-10T11:08:14.431Z,31.83
2019-06-10T11:10:45.633Z,31.22
2019-06-10T11:13:13.175Z,30.34
2019-06-10T11:15:43.426Z,30.72
2019-06-10T11:18:12.643Z,30.50
2019-06-10T11:20:40.988Z,30.52
2019-06-10T11:23:12.337Z,29.31
2019-06-10T11:25:40.345Z,30.01
2019-06-10T11:28:08.585Z,31.69
2019-06-10T11:30:36.754Z,30.89
2019-06-10T11:33:05.141Z,30.14
2019-06-10T11:35:33.282Z,29.29
2019-06-10T11:38:03.275Z,30.11
2019-06-10T11:40:33.926Z,29.49
2019-06-10T11:43:01.552Z,31.27
2019-06-10T11:45:29.781Z,30.97
2019-06-10T11:47:58.260Z,28.21
2019-06-10T11:50:26.714Z,29.92
2019-06-10T11:52:57.513Z,30.84
2019-06-10T11:55:24.739Z,29.19
2019-06-10T11:57:56.014Z,31.24
2019-06-10T12:00:25.479Z,30.53
2019-06-10T12:02:56.954Z,30.44
2019-06-10T12:05:23.717Z,31.25
2019-06-10T12:07:56.360Z,28.30
2019-06-10T12:10:23.502Z,31.19
2019-06-10T12:12:55.461Z,30.73
2019-06-10T12:15:22.787Z,28.26
2019-06-10T12:17:58.591Z,27.94
2019-06-10T12:20:22.854Z,32.56
2019-06-10T12:22:54.827Z,30.94
2019-06-10T12:25:32.530Z,29.49
2019-06-10T12:27:55.054Z,32.15
2019-06-10T12:30:22.643Z,33.58
2019-06-10T12:32:55.308Z,33.06
2019-06-10T12:35:23.052Z,30.43
2019-06-10T12:37:55.923Z,34.54
2019-06-10T12:40:21.621Z,34.44
2019-06-10T12:42:49.794Z,33.33
2019-06-10T12:45:18.207Z,33.05
2019-06-10T12:47:47.530Z,34.25
2019-06-10T12:50:16.096Z,33.94
2019-06-10T12:52:44.360Z,31.19
2019-06-10T12:55:12.711Z,31.67
2019-06-10T12:57:42.832Z,30.30
2019-06-10T13:00:20.497Z,29.50
2019-06-10T13:02:42.720Z,31.36
2019-06-10T13:05:12.235Z,33.29
2019-06-10T13:07:39.620Z,32.39
2019-06-10T13:10:08.546Z,32.08
2019-06-10T13:12:36.724Z,32.97
2019-06-10T13:15:08.399Z,32.65
2019-06-10T13:17:36.548Z,31.73
2019-06-10T13:20:06.404Z,29.30
2019-06-10T13:22:34.886Z,30.76
2019-06-10T13:25:03.134Z,30.72
2019-06-10T13:27:31.882Z,32.23
2019-06-10T13:30:00.292Z,32.17
2019-06-10T13:32:28.507Z,32.77
2019-06-10T13:34:56.708Z,32.63
2019-06-10T13:37:24.913Z,33.51
2019-06-10T13:39:53.057Z,29.87
2019-06-10T13:42:22.822Z,28.92
2019-06-10T13:44:52.285Z,27.77
2019-06-10T13:47:25.025Z,30.60
2019-06-10T13:49:53.243Z,31.30
2019-06-10T13:52:23.163Z,31.94
2019-06-10T13:54:52.664Z,30.96
2019-06-10T13:57:22.995Z,30.95
2019-06-10T13:59:52.019Z,31.32
2019-06-10T14:02:24.615Z,30.46
2019-06-10T14:04:50.062Z,30.96
2019-06-10T14:07:18.198Z,30.78
2019-06-10T14:09:46.306Z,29.90
2019-06-10T14:12:17.538Z,29.29
2019-06-10T14:14:44.466Z,30.60
2019-06-10T14:17:19.025Z,30.54
2019-06-10T14:19:43.284Z,30.94
2019-06-10T14:22:15.720Z,31.93
2019-06-10T14:24:42.147Z,32.35
2019-06-10T14:27:14.676Z,31.96
2019-06-10T14:29:41.994Z,33.09
2019-06-10T14:32:11.898Z,33.12
2019-06-10T14:34:42.065Z,33.82
2019-06-10T14:37:12.390Z,33.58
2019-06-10T14:39:42.293Z,33.88
2019-06-10T14:42:11.049Z,34.27
2019-06-10T14:44:41.998Z,34.17
2019-06-10T14:47:10.918Z,34.16
2019-06-10T14:49:39.461Z,33.64
2019-06-10T14:52:08.972Z,33.76
2019-06-10T14:54:37.211Z,33.70
2019-06-10T14:57:05.497Z,33.71
2019-06-10T14:59:33.646Z,33.58
2019-06-10T15:02:02.812Z,33.44
2019-06-10T15:04:33.182Z,33.49
2019-06-10T15:07:02.923Z,33.43
2019-06-10T15:09:33.333Z,30.58
2019-06-10T15:12:02.833Z,31.45
2019-06-10T15:14:32.348Z,31.83
2019-06-10T15:17:02.829Z,32.64
2019-06-10T15:19:30.499Z,32.32
2019-06-10T15:21:58.654Z,31.81
2019-06-10T15:24:26.783Z,32.15
2019-06-10T15:27:09.096Z,31.99
2019-06-10T15:29:25.309Z,31.47
2019-06-10T15:32:09.007Z,32.10
2019-06-10T15:34:23.371Z,32.09
2019-06-10T15:36:52.731Z,31.99
2019-06-10T15:39:23.998Z,32.03
2019-06-10T15:41:52.291Z,32.45
2019-06-10T15:44:40.467Z,32.42
2019-06-10T15:46:52.419Z,31.62
2019-06-10T15:49:24.425Z,31.95
2019-06-10T15:51:52.501Z,31.80
2019-06-10T15:54:24.554Z,32.16
2019-06-10T15:56:56.156Z,32.37
2019-06-10T15:59:21.119Z,32.72
2019-06-10T16:01:49.590Z,32.85
2019-06-10T16:04:19.328Z,32.08
2019-06-10T16:06:47.713Z,32.44
2019-06-10T16:09:16.999Z,32.02
2019-06-10T16:11:45.788Z,32.54
2019-06-10T16:14:14.759Z,32.79
2019-06-10T16:16:43.223Z,32.70
2019-06-10T16:19:13.305Z,32.59
2019-06-10T16:21:42.858Z,32.52
2019-06-10T16:24:13.672Z,31.03
2019-06-10T16:26:41.077Z,32.33
2019-06-10T16:29:09.223Z,31.81
2019-06-10T16:31:37.427Z,32.42
2019-06-10T16:34:05.629Z,32.24
2019-06-10T16:36:33.946Z,31.76
2019-06-10T16:39:03.409Z,31.37
2019-06-10T16:41:32.371Z,31.39
2019-06-10T16:44:02.959Z,30.72
2019-06-10T16:46:32.382Z,31.97
2019-06-10T16:49:03.125Z,31.57
2019-06-10T16:51:30.725Z,31.46
2019-06-10T16:53:58.906Z,31.27
2019-06-10T16:56:27.849Z,31.66
2019-06-10T16:58:56.053Z,31.12
2019-06-10T17:01:26.835Z,31.17
2019-06-10T17:03:54.110Z,31.16
2019-06-10T17:06:23.986Z,31.03
2019-06-10T17:08:52.500Z,31.01
2019-06-10T17:11:23.657Z,30.42
2019-06-10T17:13:52.672Z,30.50
2019-06-10T17:16:22.877Z,30.34
2019-06-10T17:18:50.580Z,30.62
2019-06-10T17:21:19.430Z,30.33
2019-06-10T17:23:47.964Z,29.73
2019-06-10T17:26:16.234Z,29.77
2019-06-10T17:28:44.325Z,29.53
2019-06-10T17:31:12.498Z,28.94
2019-06-10T17:33:42.722Z,29.23
2019-06-10T17:36:12.606Z,29.38
2019-06-10T17:38:42.943Z,29.33
2019-06-10T17:41:13.094Z,29.06
2019-06-10T17:43:42.918Z,29.15
2019-06-10T17:46:12.463Z,28.34
2019-06-10T17:48:43.041Z,27.13
2019-06-10T17:51:10.404Z,27.67
2019-06-10T17:53:38.561Z,26.85
2019-06-10T17:56:06.735Z,26.98
2019-06-10T17:58:50.067Z,26.73
2019-06-10T18:01:04.775Z,27.03
2019-06-10T18:03:33.429Z,27.13
2019-06-10T18:06:02.825Z,26.51
2019-06-10T18:08:34.595Z,27.09
2019-06-10T18:11:03.210Z,25.56
2019-06-10T18:13:34.014Z,26.54
2019-06-10T18:16:02.830Z,26.18
2019-06-10T18:18:33.806Z,26.15
2019-06-10T18:21:03.193Z,25.65
2019-06-10T18:23:30.846Z,26.27
2019-06-10T18:25:59.107Z,25.86
2019-06-10T18:28:27.268Z,25.14
2019-06-10T18:30:55.407Z,25.23
2019-06-10T18:33:23.523Z,25.99
2019-06-10T18:35:53.253Z,26.02
2019-06-10T18:38:21.726Z,25.76
2019-06-10T18:40:49.893Z,25.33
2019-06-10T18:43:22.395Z,24.72
2019-06-10T18:45:52.951Z,25.52
2019-06-10T18:48:20.097Z,25.77
2019-06-10T18:50:48.353Z,25.85
2019-06-10T18:53:16.513Z,25.70
2019-06-10T18:55:44.626Z,25.56
2019-06-10T18:58:12.950Z,25.07
2019-06-10T19:00:56.986Z,25.54
2019-06-10T19:03:16.395Z,25.36
2019-06-10T19:05:42.153Z,25.04
2019-06-10T19:08:10.386Z,25.19
2019-06-10T19:10:39.899Z,25.10
2019-06-10T19:13:08.340Z,25.18
2019-06-10T19:15:37.745Z,25.00
2019-06-10T19:18:06.265Z,24.84
2019-06-10T19:20:37.304Z,24.70
2019-06-10T19:23:04.679Z,24.61
2019-06-10T19:25:35.267Z,24.76
2019-06-10T19:28:02.830Z,24.29
2019-06-10T19:30:34.020Z,23.87
2019-06-10T19:33:02.511Z,24.22
2019-06-10T19:35:33.620Z,24.04
2019-06-10T19:38:02.290Z,23.93
2019-06-10T19:40:32.544Z,23.87
2019-06-10T19:43:03.050Z,23.98
2019-06-10T19:45:32.104Z,23.92
2019-06-10T19:48:03.140Z,23.79
2019-06-10T19:50:32.741Z,23.81
2019-06-10T19:53:02.685Z,23.65
2019-06-10T19:55:32.472Z,23.47
2019-06-10T19:58:03.835Z,23.46
2019-06-10T20:00:34.054Z,23.53
2019-06-10T20:03:02.885Z,23.23
2019-06-10T20:05:32.632Z,23.29
2019-06-10T20:08:02.819Z,23.25
2019-06-10T20:10:32.405Z,23.26
2019-06-10T20:13:00.420Z,23.20
2019-06-10T20:15:28.677Z,23.15
2019-06-10T20:17:56.805Z,23.13
2019-06-10T20:20:25.095Z,22.96
2019-06-10T20:22:56.594Z,22.96
2019-06-10T20:25:23.318Z,22.88
2019-06-10T20:27:52.431Z,22.88
2019-06-10T20:30:27.985Z,22.70
2019-06-10T20:32:54.881Z,22.67
2019-06-10T20:35:23.243Z,22.45
2019-06-10T20:37:53.624Z,22.30
2019-06-10T20:40:20.918Z,22.40
2019-06-10T20:42:49.111Z,22.29
2019-06-10T20:45:17.443Z,22.19
2019-06-10T20:47:47.981Z,22.22
2019-06-10T20:50:15.730Z,22.35
2019-06-10T20:52:45.990Z,22.29
2019-06-10T20:55:14.057Z,22.21
2019-06-10T20:57:57.610Z,22.16
2019-06-10T21:00:22.377Z,22.06
2019-06-10T21:02:45.522Z,22.01
2019-06-10T21:05:13.359Z,21.92
2019-06-10T21:07:44.170Z,21.84
2019-06-10T21:10:12.895Z,21.71
2019-06-10T21:12:43.970Z,21.58
2019-06-10T21:15:12.606Z,21.58
2019-06-10T21:17:40.903Z,21.49
2019-06-10T21:20:11.994Z,21.47
2019-06-10T21:22:40.477Z,21.39
2019-06-10T21:25:09.880Z,21.27
2019-06-10T21:27:38.026Z,20.47
2019-06-10T21:30:11.343Z,19.66
2019-06-10T21:32:36.390Z,19.04
2019-06-10T21:35:04.715Z,20.17
2019-06-10T21:37:32.999Z,20.48
2019-06-10T21:40:03.318Z,20.65
2019-06-10T21:42:32.715Z,20.68
2019-06-10T21:45:03.348Z,20.70
2019-06-10T21:47:32.286Z,20.57
2019-06-10T21:49:59.732Z,20.35
2019-06-10T21:52:27.848Z,20.43
2019-06-10T21:54:56.050Z,20.42
2019-06-10T21:57:24.259Z,20.45
2019-06-10T21:59:54.033Z,20.38
2019-06-10T22:02:23.087Z,20.28
2019-06-10T22:04:53.769Z,20.10
2019-06-10T22:07:22.395Z,19.88
2019-06-10T22:09:50.151Z,20.11
2019-06-10T22:12:18.261Z,19.51
2019-06-10T22:14:46.417Z,20.08
2019-06-10T22:17:14.724Z,20.01
2019-06-10T22:19:42.845Z,19.99
2019-06-10T22:22:12.942Z,19.87
2019-06-10T22:24:42.297Z,19.88
2019-06-10T22:27:09.747Z,19.78
2019-06-10T22:29:38.348Z,19.67
2019-06-10T22:32:06.523Z,19.57
2019-06-10T22:34:34.718Z,19.60
2019-06-10T22:37:03.311Z,19.48
2019-06-10T22:39:32.575Z,19.31
2019-06-10T22:42:03.083Z,19.50
2019-06-10T22:44:29.832Z,18.80
2019-06-10T22:46:58.372Z,19.04
2019-06-10T22:49:26.489Z,19.08
2019-06-10T22:51:57.920Z,17.87
2019-06-10T22:54:23.562Z,17.44
2019-06-10T22:56:54.238Z,18.40
2019-06-10T22:59:22.920Z,17.85
2019-06-10T23:01:53.596Z,16.88
2019-06-10T23:04:22.359Z,16.80
2019-06-10T23:06:53.052Z,17.65
2019-06-10T23:09:22.215Z,18.10
2019-06-10T23:11:50.516Z,17.97
2019-06-10T23:14:19.307Z,18.36
2019-06-10T23:16:48.794Z,18.49
2019-06-10T23:19:17.101Z,18.57
2019-06-10T23:21:45.880Z,18.55
2019-06-10T23:24:14.039Z,18.29
2019-06-10T23:26:42.571Z,17.79
2019-06-10T23:29:12.258Z,18.07
2019-06-10T23:31:51.550Z,17.91
2019-06-10T23:34:11.702Z,17.28
2019-06-10T23:36:40.315Z,17.20
2019-06-10T23:39:08.457Z,17.92
2019-06-10T23:41:36.617Z,18.05
2019-06-10T23:44:04.799Z,18.01
2019-06-10T23:46:32.924Z,17.59
2019-06-10T23:49:04.197Z,17.82
2019-06-10T23:51:33.113Z,17.85
2019-06-10T23:54:04.622Z,18.01
2019-06-10T23:56:32.493Z,17.95
2019-06-10T23:59:03.029Z,17.92
